EGPM/SCS METAR and TAF weather

Enter ICAO airport designator
Station Type Date Time Source
EGPM METAR 2020/03/29 12:20 UTC NOAA

EGPM 291220Z AUTO 31015KT 9999 FEW032/// 07/00 Q1041


Station Type Date Time Source
EGPM Decoded METAR 2020/03/29 12:20 UTC NOAA

Scatsa / Shetland Island, United Kingdom (EGPM) 60-26N 001-18W
Mar 29, 2020 - 08:20 AM EDT / 2020.03.29 1220 UTC
Wind: from the NW (310 degrees) at 17 MPH (15 KT):0
Visibility: greater than 7 mile(s):0
Sky conditions: mostly clear
Temperature: 44 F (7 C)
Dew Point: 32 F (0 C)
Relative Humidity: 60%
Pressure (altimeter): 30.74 in. Hg (1041 hPa)
ob: EGPM 291220Z AUTO 31015KT 9999 FEW032/// 07/00 Q1041
cycle: 12

Station Type Date Time Source
EGPM TAF 2013/04/29 03:39 UTC NOAA

TAF TAF EGPM 290337Z 2903/2915 22005KT 9999 SCT030 PROB30
TEMPO 2903/2906 7000 SHRAGS
BECMG 2906/2909 32015KT PROB40
TEMPO 2906/2915 6000 SHRA SHGS BKN012CB

Example: see airport list